sensor_id;sensor_type;location;lat;lon;timestamp;P1;durP1;ratioP1;P2;durP2;ratioP2
14316;SDS011;7242;50.858;6.586;2022-08-19T00:06:51;12.73;;;11.67;;
14316;SDS011;7242;50.858;6.586;2022-08-19T00:09:52;13.97;;;12.57;;
14316;SDS011;7242;50.858;6.586;2022-08-19T00:12:53;14.57;;;13.17;;
14316;SDS011;7242;50.858;6.586;2022-08-19T00:15:55;14.03;;;12.63;;
14316;SDS011;7242;50.858;6.586;2022-08-19T00:18:58;13.97;;;12.77;;
14316;SDS011;7242;50.858;6.586;2022-08-19T00:21:59;12.47;;;11.40;;
14316;SDS011;7242;50.858;6.586;2022-08-19T00:25:00;14.27;;;12.93;;
14316;SDS011;7242;50.858;6.586;2022-08-19T00:28:01;14.07;;;12.77;;
14316;SDS011;7242;50.858;6.586;2022-08-19T00:31:03;14.93;;;13.60;;
14316;SDS011;7242;50.858;6.586;2022-08-19T00:34:05;16.37;;;14.87;;
14316;SDS011;7242;50.858;6.586;2022-08-19T00:37:05;15.07;;;13.77;;
14316;SDS011;7242;50.858;6.586;2022-08-19T00:40:06;15.27;;;13.87;;
14316;SDS011;7242;50.858;6.586;2022-08-19T00:43:09;14.43;;;13.13;;
14316;SDS011;7242;50.858;6.586;2022-08-19T00:46:13;14.90;;;13.60;;
14316;SDS011;7242;50.858;6.586;2022-08-19T00:49:25;16.10;;;14.70;;
14316;SDS011;7242;50.858;6.586;2022-08-19T00:52:30;15.03;;;13.63;;
14316;SDS011;7242;50.858;6.586;2022-08-19T00:55:34;15.43;;;13.93;;
14316;SDS011;7242;50.858;6.586;2022-08-19T00:58:35;17.53;;;15.87;;
14316;SDS011;7242;50.858;6.586;2022-08-19T01:01:40;18.23;;;16.47;;
14316;SDS011;7242;50.858;6.586;2022-08-19T01:04:42;16.87;;;15.40;;
14316;SDS011;7242;50.858;6.586;2022-08-19T01:07:43;17.03;;;15.53;;
14316;SDS011;7242;50.858;6.586;2022-08-19T01:10:45;17.73;;;16.23;;
14316;SDS011;7242;50.858;6.586;2022-08-19T01:13:49;18.43;;;16.83;;
14316;SDS011;7242;50.858;6.586;2022-08-19T01:16:53;18.23;;;16.83;;
14316;SDS011;7242;50.858;6.586;2022-08-19T01:19:55;18.07;;;16.40;;
14316;SDS011;7242;50.858;6.586;2022-08-19T01:22:57;17.77;;;16.03;;
14316;SDS011;7242;50.858;6.586;2022-08-19T01:25:58;18.27;;;16.77;;
14316;SDS011;7242;50.858;6.586;2022-08-19T01:28:59;17.57;;;16.17;;
14316;SDS011;7242;50.858;6.586;2022-08-19T01:32:01;19.23;;;17.33;;
14316;SDS011;7242;50.858;6.586;2022-08-19T01:35:03;21.30;;;19.43;;
14316;SDS011;7242;50.858;6.586;2022-08-19T01:38:05;20.83;;;19.00;;
14316;SDS011;7242;50.858;6.586;2022-08-19T01:41:09;21.43;;;19.50;;
14316;SDS011;7242;50.858;6.586;2022-08-19T01:44:11;22.87;;;20.87;;
14316;SDS011;7242;50.858;6.586;2022-08-19T01:47:11;25.60;;;23.20;;
14316;SDS011;7242;50.858;6.586;2022-08-19T01:50:13;26.00;;;23.70;;
14316;SDS011;7242;50.858;6.586;2022-08-19T01:53:14;28.17;;;25.47;;
14316;SDS011;7242;50.858;6.586;2022-08-19T01:56:16;27.00;;;24.60;;
14316;SDS011;7242;50.858;6.586;2022-08-19T01:59:19;26.07;;;23.60;;
14316;SDS011;7242;50.858;6.586;2022-08-19T02:02:22;28.40;;;25.80;;
14316;SDS011;7242;50.858;6.586;2022-08-19T02:05:23;27.73;;;25.23;;
14316;SDS011;7242;50.858;6.586;2022-08-19T02:08:28;29.33;;;26.67;;
14316;SDS011;7242;50.858;6.586;2022-08-19T02:11:31;28.80;;;26.27;;
14316;SDS011;7242;50.858;6.586;2022-08-19T02:14:34;28.80;;;26.13;;
14316;SDS011;7242;50.858;6.586;2022-08-19T02:17:36;27.63;;;25.07;;
14316;SDS011;7242;50.858;6.586;2022-08-19T02:20:37;26.77;;;24.37;;
14316;SDS011;7242;50.858;6.586;2022-08-19T02:23:38;27.40;;;24.93;;
14316;SDS011;7242;50.858;6.586;2022-08-19T02:26:39;29.47;;;26.77;;
14316;SDS011;7242;50.858;6.586;2022-08-19T02:29:41;30.67;;;27.87;;
14316;SDS011;7242;50.858;6.586;2022-08-19T02:32:43;31.37;;;28.30;;
14316;SDS011;7242;50.858;6.586;2022-08-19T02:35:44;30.93;;;28.00;;
14316;SDS011;7242;50.858;6.586;2022-08-19T02:38:46;29.70;;;27.00;;
14316;SDS011;7242;50.858;6.586;2022-08-19T02:41:47;29.43;;;26.63;;
14316;SDS011;7242;50.858;6.586;2022-08-19T02:44:49;30.50;;;27.70;;
14316;SDS011;7242;50.858;6.586;2022-08-19T02:47:51;28.00;;;25.50;;
14316;SDS011;7242;50.858;6.586;2022-08-19T02:50:53;27.67;;;24.87;;
14316;SDS011;7242;50.858;6.586;2022-08-19T02:53:55;28.03;;;25.53;;
14316;SDS011;7242;50.858;6.586;2022-08-19T02:56:56;30.00;;;27.27;;
14316;SDS011;7242;50.858;6.586;2022-08-19T02:59:58;31.27;;;28.37;;
14316;SDS011;7242;50.858;6.586;2022-08-19T03:02:59;27.40;;;24.80;;
14316;SDS011;7242;50.858;6.586;2022-08-19T03:06:08;27.17;;;24.57;;
14316;SDS011;7242;50.858;6.586;2022-08-19T03:09:13;29.30;;;26.20;;
14316;SDS011;7242;50.858;6.586;2022-08-19T03:12:14;29.73;;;26.67;;
14316;SDS011;7242;50.858;6.586;2022-08-19T03:15:15;27.77;;;25.17;;
14316;SDS011;7242;50.858;6.586;2022-08-19T03:18:16;28.47;;;25.87;;
14316;SDS011;7242;50.858;6.586;2022-08-19T03:21:17;27.90;;;25.23;;
14316;SDS011;7242;50.858;6.586;2022-08-19T03:24:20;32.20;;;29.20;;
14316;SDS011;7242;50.858;6.586;2022-08-19T03:27:21;34.20;;;31.00;;
14316;SDS011;7242;50.858;6.586;2022-08-19T03:30:22;33.87;;;30.47;;
14316;SDS011;7242;50.858;6.586;2022-08-19T03:33:23;34.57;;;31.07;;
14316;SDS011;7242;50.858;6.586;2022-08-19T03:36:25;33.13;;;29.93;;
14316;SDS011;7242;50.858;6.586;2022-08-19T03:39:27;34.10;;;31.00;;
14316;SDS011;7242;50.858;6.586;2022-08-19T03:42:28;34.23;;;30.93;;
14316;SDS011;7242;50.858;6.586;2022-08-19T03:45:29;34.67;;;31.27;;
14316;SDS011;7242;50.858;6.586;2022-08-19T03:48:30;34.83;;;31.63;;
14316;SDS011;7242;50.858;6.586;2022-08-19T03:51:33;35.57;;;32.27;;
14316;SDS011;7242;50.858;6.586;2022-08-19T03:54:35;37.77;;;34.00;;
14316;SDS011;7242;50.858;6.586;2022-08-19T03:57:38;35.30;;;31.97;;
14316;SDS011;7242;50.858;6.586;2022-08-19T04:00:41;35.93;;;32.43;;
14316;SDS011;7242;50.858;6.586;2022-08-19T04:03:43;37.50;;;34.00;;
14316;SDS011;7242;50.858;6.586;2022-08-19T04:06:46;36.03;;;32.53;;
14316;SDS011;7242;50.858;6.586;2022-08-19T04:09:47;36.33;;;32.90;;
14316;SDS011;7242;50.858;6.586;2022-08-19T04:12:49;35.53;;;32.23;;
14316;SDS011;7242;50.858;6.586;2022-08-19T04:15:49;34.77;;;31.43;;
14316;SDS011;7242;50.858;6.586;2022-08-19T04:18:50;32.33;;;29.23;;
14316;SDS011;7242;50.858;6.586;2022-08-19T04:21:52;35.20;;;31.70;;
14316;SDS011;7242;50.858;6.586;2022-08-19T04:24:53;34.80;;;31.60;;
14316;SDS011;7242;50.858;6.586;2022-08-19T04:27:54;39.37;;;35.47;;
14316;SDS011;7242;50.858;6.586;2022-08-19T04:30:55;40.07;;;36.17;;
14316;SDS011;7242;50.858;6.586;2022-08-19T04:33:56;38.77;;;34.87;;
14316;SDS011;7242;50.858;6.586;2022-08-19T04:36:58;39.30;;;35.60;;
14316;SDS011;7242;50.858;6.586;2022-08-19T04:39:59;40.50;;;36.40;;
14316;SDS011;7242;50.858;6.586;2022-08-19T04:43:18;39.37;;;35.27;;
14316;SDS011;7242;50.858;6.586;2022-08-19T04:46:19;35.50;;;32.13;;
14316;SDS011;7242;50.858;6.586;2022-08-19T04:49:21;34.10;;;30.87;;
14316;SDS011;7242;50.858;6.586;2022-08-19T04:52:22;36.10;;;32.63;;
14316;SDS011;7242;50.858;6.586;2022-08-19T04:55:23;35.43;;;31.93;;
14316;SDS011;7242;50.858;6.586;2022-08-19T04:58:27;34.57;;;31.23;;
14316;SDS011;7242;50.858;6.586;2022-08-19T05:01:28;35.50;;;32.07;;
14316;SDS011;7242;50.858;6.586;2022-08-19T05:04:30;34.50;;;31.20;;
14316;SDS011;7242;50.858;6.586;2022-08-19T05:07:33;37.63;;;33.63;;
14316;SDS011;7242;50.858;6.586;2022-08-19T05:10:35;39.53;;;35.50;;
14316;SDS011;7242;50.858;6.586;2022-08-19T05:13:37;41.03;;;36.73;;
14316;SDS011;7242;50.858;6.586;2022-08-19T05:16:39;40.23;;;36.13;;
14316;SDS011;7242;50.858;6.586;2022-08-19T05:19:41;42.30;;;37.97;;
14316;SDS011;7242;50.858;6.586;2022-08-19T05:23:00;36.03;;;32.33;;
14316;SDS011;7242;50.858;6.586;2022-08-19T05:26:01;41.27;;;36.97;;
14316;SDS011;7242;50.858;6.586;2022-08-19T05:29:03;42.13;;;37.73;;
14316;SDS011;7242;50.858;6.586;2022-08-19T05:32:04;38.33;;;34.50;;
14316;SDS011;7242;50.858;6.586;2022-08-19T05:35:09;39.83;;;35.53;;
14316;SDS011;7242;50.858;6.586;2022-08-19T05:38:11;41.53;;;37.43;;
14316;SDS011;7242;50.858;6.586;2022-08-19T05:41:13;42.83;;;38.23;;
14316;SDS011;7242;50.858;6.586;2022-08-19T05:44:16;40.07;;;35.83;;
14316;SDS011;7242;50.858;6.586;2022-08-19T05:47:17;40.07;;;35.97;;
14316;SDS011;7242;50.858;6.586;2022-08-19T05:50:20;45.07;;;40.20;;
14316;SDS011;7242;50.858;6.586;2022-08-19T05:53:21;42.83;;;38.23;;
14316;SDS011;7242;50.858;6.586;2022-08-19T05:56:21;44.60;;;39.80;;
14316;SDS011;7242;50.858;6.586;2022-08-19T05:59:22;47.30;;;40.03;;
14316;SDS011;7242;50.858;6.586;2022-08-19T06:02:23;42.57;;;37.97;;
14316;SDS011;7242;50.858;6.586;2022-08-19T06:05:24;41.13;;;36.83;;
14316;SDS011;7242;50.858;6.586;2022-08-19T06:08:25;46.83;;;39.43;;
14316;SDS011;7242;50.858;6.586;2022-08-19T06:14:34;44.70;;;38.57;;
14316;SDS011;7242;50.858;6.586;2022-08-19T06:17:35;40.17;;;35.67;;
14316;SDS011;7242;50.858;6.586;2022-08-19T06:20:36;40.77;;;35.17;;
14316;SDS011;7242;50.858;6.586;2022-08-19T06:23:37;40.50;;;35.33;;
14316;SDS011;7242;50.858;6.586;2022-08-19T06:26:40;41.90;;;35.30;;
14316;SDS011;7242;50.858;6.586;2022-08-19T06:29:43;46.43;;;40.10;;
14316;SDS011;7242;50.858;6.586;2022-08-19T06:32:43;43.27;;;36.90;;
14316;SDS011;7242;50.858;6.586;2022-08-19T06:35:44;44.10;;;37.97;;
14316;SDS011;7242;50.858;6.586;2022-08-19T06:38:45;42.90;;;36.30;;
14316;SDS011;7242;50.858;6.586;2022-08-19T06:41:47;41.97;;;36.30;;
14316;SDS011;7242;50.858;6.586;2022-08-19T06:44:51;49.23;;;40.43;;
14316;SDS011;7242;50.858;6.586;2022-08-19T06:47:52;49.10;;;40.87;;
14316;SDS011;7242;50.858;6.586;2022-08-19T06:50:55;45.67;;;39.50;;
14316;SDS011;7242;50.858;6.586;2022-08-19T06:53:56;50.23;;;43.17;;
14316;SDS011;7242;50.858;6.586;2022-08-19T06:56:58;54.93;;;44.40;;
14316;SDS011;7242;50.858;6.586;2022-08-19T07:00:04;51.97;;;43.77;;
14316;SDS011;7242;50.858;6.586;2022-08-19T07:03:10;53.57;;;43.37;;
14316;SDS011;7242;50.858;6.586;2022-08-19T07:06:13;47.00;;;40.13;;
14316;SDS011;7242;50.858;6.586;2022-08-19T07:09:17;56.73;;;45.40;;
14316;SDS011;7242;50.858;6.586;2022-08-19T07:12:18;52.30;;;43.40;;
14316;SDS011;7242;50.858;6.586;2022-08-19T07:15:19;50.27;;;40.83;;
14316;SDS011;7242;50.858;6.586;2022-08-19T07:18:21;53.80;;;45.23;;
14316;SDS011;7242;50.858;6.586;2022-08-19T07:21:24;54.40;;;43.93;;
14316;SDS011;7242;50.858;6.586;2022-08-19T07:24:28;54.30;;;44.53;;
14316;SDS011;7242;50.858;6.586;2022-08-19T07:27:29;53.03;;;42.67;;
14316;SDS011;7242;50.858;6.586;2022-08-19T07:30:30;50.97;;;41.80;;
14316;SDS011;7242;50.858;6.586;2022-08-19T07:33:31;52.10;;;43.67;;
14316;SDS011;7242;50.858;6.586;2022-08-19T07:36:34;47.60;;;39.13;;
14316;SDS011;7242;50.858;6.586;2022-08-19T07:39:37;43.73;;;34.70;;
14316;SDS011;7242;50.858;6.586;2022-08-19T07:42:38;48.97;;;41.93;;
14316;SDS011;7242;50.858;6.586;2022-08-19T07:45:39;46.70;;;38.90;;
14316;SDS011;7242;50.858;6.586;2022-08-19T07:48:41;44.60;;;37.67;;
14316;SDS011;7242;50.858;6.586;2022-08-19T07:51:47;39.57;;;33.60;;
14316;SDS011;7242;50.858;6.586;2022-08-19T07:54:49;40.00;;;34.63;;
14316;SDS011;7242;50.858;6.586;2022-08-19T07:57:50;39.80;;;33.63;;
14316;SDS011;7242;50.858;6.586;2022-08-19T08:00:53;33.40;;;29.63;;
14316;SDS011;7242;50.858;6.586;2022-08-19T08:03:56;27.93;;;24.93;;
14316;SDS011;7242;50.858;6.586;2022-08-19T08:07:16;24.13;;;20.50;;
14316;SDS011;7242;50.858;6.586;2022-08-19T08:10:36;20.20;;;18.13;;
14316;SDS011;7242;50.858;6.586;2022-08-19T08:13:37;23.03;;;20.63;;
14316;SDS011;7242;50.858;6.586;2022-08-19T08:16:38;20.57;;;16.77;;
14316;SDS011;7242;50.858;6.586;2022-08-19T08:19:39;21.87;;;17.60;;
14316;SDS011;7242;50.858;6.586;2022-08-19T08:22:44;19.70;;;17.60;;
14316;SDS011;7242;50.858;6.586;2022-08-19T08:26:04;18.33;;;16.33;;
14316;SDS011;7242;50.858;6.586;2022-08-19T08:29:06;17.33;;;15.37;;
14316;SDS011;7242;50.858;6.586;2022-08-19T08:32:11;12.17;;;10.80;;
14316;SDS011;7242;50.858;6.586;2022-08-19T08:35:13;13.67;;;10.70;;
14316;SDS011;7242;50.858;6.586;2022-08-19T08:38:16;13.97;;;11.83;;
14316;SDS011;7242;50.858;6.586;2022-08-19T08:41:22;11.97;;;9.70;;
14316;SDS011;7242;50.858;6.586;2022-08-19T08:48:35;12.37;;;10.67;;
14316;SDS011;7242;50.858;6.586;2022-08-19T08:51:38;11.63;;;9.43;;
14316;SDS011;7242;50.858;6.586;2022-08-19T08:54:44;10.70;;;9.60;;
14316;SDS011;7242;50.858;6.586;2022-08-19T09:00:51;13.53;;;12.13;;
14316;SDS011;7242;50.858;6.586;2022-08-19T09:03:52;10.57;;;9.60;;
14316;SDS011;7242;50.858;6.586;2022-08-19T09:13:31;18.40;;;16.37;;
14316;SDS011;7242;50.858;6.586;2022-08-19T09:16:44;19.60;;;16.93;;
14316;SDS011;7242;50.858;6.586;2022-08-19T09:19:52;19.40;;;16.57;;
14316;SDS011;7242;50.858;6.586;2022-08-19T09:23:08;21.67;;;17.63;;
14316;SDS011;7242;50.858;6.586;2022-08-19T09:26:12;23.63;;;19.43;;
14316;SDS011;7242;50.858;6.586;2022-08-19T09:29:15;23.30;;;20.37;;
14316;SDS011;7242;50.858;6.586;2022-08-19T09:32:15;21.47;;;19.27;;
14316;SDS011;7242;50.858;6.586;2022-08-19T09:35:18;24.53;;;21.23;;
14316;SDS011;7242;50.858;6.586;2022-08-19T09:38:23;24.57;;;22.03;;
14316;SDS011;7242;50.858;6.586;2022-08-19T09:41:24;22.10;;;19.63;;
14316;SDS011;7242;50.858;6.586;2022-08-19T09:44:25;20.07;;;17.97;;
14316;SDS011;7242;50.858;6.586;2022-08-19T09:47:25;17.40;;;15.57;;
14316;SDS011;7242;50.858;6.586;2022-08-19T09:50:26;23.30;;;21.10;;
14316;SDS011;7242;50.858;6.586;2022-08-19T09:53:27;20.70;;;18.57;;
14316;SDS011;7242;50.858;6.586;2022-08-19T09:56:29;22.13;;;19.43;;
14316;SDS011;7242;50.858;6.586;2022-08-19T09:59:30;22.43;;;18.80;;
14316;SDS011;7242;50.858;6.586;2022-08-19T10:02:31;17.47;;;15.73;;
14316;SDS011;7242;50.858;6.586;2022-08-19T10:05:31;18.07;;;16.17;;
14316;SDS011;7242;50.858;6.586;2022-08-19T10:08:51;18.17;;;14.20;;
14316;SDS011;7242;50.858;6.586;2022-08-19T10:11:52;17.27;;;15.20;;
14316;SDS011;7242;50.858;6.586;2022-08-19T10:14:53;19.33;;;16.70;;
14316;SDS011;7242;50.858;6.586;2022-08-19T10:17:54;19.03;;;17.20;;
14316;SDS011;7242;50.858;6.586;2022-08-19T10:21:02;19.87;;;17.87;;
14316;SDS011;7242;50.858;6.586;2022-08-19T10:24:07;21.97;;;16.77;;
14316;SDS011;7242;50.858;6.586;2022-08-19T10:27:08;24.70;;;19.20;;
14316;SDS011;7242;50.858;6.586;2022-08-19T10:30:09;20.90;;;18.80;;
14316;SDS011;7242;50.858;6.586;2022-08-19T10:33:11;23.50;;;21.23;;
14316;SDS011;7242;50.858;6.586;2022-08-19T10:36:13;21.80;;;18.77;;
14316;SDS011;7242;50.858;6.586;2022-08-19T10:39:15;20.93;;;18.93;;
14316;SDS011;7242;50.858;6.586;2022-08-19T10:42:16;22.33;;;20.13;;
14316;SDS011;7242;50.858;6.586;2022-08-19T10:45:18;21.80;;;19.63;;
14316;SDS011;7242;50.858;6.586;2022-08-19T10:48:22;27.40;;;19.67;;
14316;SDS011;7242;50.858;6.586;2022-08-19T10:51:22;23.40;;;20.73;;
14316;SDS011;7242;50.858;6.586;2022-08-19T10:54:42;18.27;;;16.47;;
14316;SDS011;7242;50.858;6.586;2022-08-19T10:58:02;19.73;;;17.83;;
14316;SDS011;7242;50.858;6.586;2022-08-19T11:01:02;20.97;;;18.87;;
14316;SDS011;7242;50.858;6.586;2022-08-19T11:04:04;21.00;;;18.90;;
14316;SDS011;7242;50.858;6.586;2022-08-19T11:07:05;20.13;;;18.23;;
14316;SDS011;7242;50.858;6.586;2022-08-19T11:10:08;22.90;;;19.87;;
14316;SDS011;7242;50.858;6.586;2022-08-19T11:13:10;24.03;;;21.60;;
14316;SDS011;7242;50.858;6.586;2022-08-19T11:16:16;20.80;;;18.60;;
14316;SDS011;7242;50.858;6.586;2022-08-19T11:19:18;22.97;;;20.63;;
14316;SDS011;7242;50.858;6.586;2022-08-19T11:22:19;22.43;;;19.03;;
14316;SDS011;7242;50.858;6.586;2022-08-19T11:25:20;22.30;;;20.00;;
14316;SDS011;7242;50.858;6.586;2022-08-19T11:28:21;21.07;;;18.00;;
14316;SDS011;7242;50.858;6.586;2022-08-19T11:31:23;20.07;;;17.97;;
14316;SDS011;7242;50.858;6.586;2022-08-19T11:34:26;22.57;;;19.53;;
14316;SDS011;7242;50.858;6.586;2022-08-19T11:37:28;21.87;;;17.63;;
14316;SDS011;7242;50.858;6.586;2022-08-19T11:40:29;20.03;;;17.77;;
14316;SDS011;7242;50.858;6.586;2022-08-19T11:43:29;16.97;;;15.13;;
14316;SDS011;7242;50.858;6.586;2022-08-19T11:46:31;19.73;;;16.27;;
14316;SDS011;7242;50.858;6.586;2022-08-19T11:49:32;16.50;;;13.90;;
14316;SDS011;7242;50.858;6.586;2022-08-19T11:52:35;19.10;;;16.20;;
14316;SDS011;7242;50.858;6.586;2022-08-19T11:55:37;19.13;;;16.80;;
14316;SDS011;7242;50.858;6.586;2022-08-19T11:58:39;17.80;;;16.10;;
14316;SDS011;7242;50.858;6.586;2022-08-19T12:01:42;16.73;;;15.00;;
14316;SDS011;7242;50.858;6.586;2022-08-19T12:04:43;15.23;;;13.63;;
14316;SDS011;7242;50.858;6.586;2022-08-19T12:07:44;18.93;;;12.70;;
14316;SDS011;7242;50.858;6.586;2022-08-19T12:10:45;14.57;;;12.57;;
14316;SDS011;7242;50.858;6.586;2022-08-19T12:13:47;14.43;;;11.30;;
14316;SDS011;7242;50.858;6.586;2022-08-19T12:16:47;14.23;;;11.33;;
14316;SDS011;7242;50.858;6.586;2022-08-19T12:19:48;13.43;;;12.03;;
14316;SDS011;7242;50.858;6.586;2022-08-19T12:22:49;11.57;;;10.37;;
14316;SDS011;7242;50.858;6.586;2022-08-19T12:25:50;14.27;;;12.67;;
14316;SDS011;7242;50.858;6.586;2022-08-19T12:28:52;16.13;;;14.43;;
14316;SDS011;7242;50.858;6.586;2022-08-19T12:31:53;15.07;;;13.30;;
14316;SDS011;7242;50.858;6.586;2022-08-19T12:35:00;15.33;;;12.07;;
14316;SDS011;7242;50.858;6.586;2022-08-19T12:38:01;16.07;;;14.43;;
14316;SDS011;7242;50.858;6.586;2022-08-19T12:41:03;18.57;;;14.37;;
14316;SDS011;7242;50.858;6.586;2022-08-19T12:44:06;16.53;;;12.97;;
14316;SDS011;7242;50.858;6.586;2022-08-19T12:47:07;12.00;;;10.47;;
14316;SDS011;7242;50.858;6.586;2022-08-19T12:50:09;12.57;;;11.13;;
14316;SDS011;7242;50.858;6.586;2022-08-19T12:53:11;11.27;;;10.07;;
14316;SDS011;7242;50.858;6.586;2022-08-19T12:56:14;12.10;;;10.70;;
14316;SDS011;7242;50.858;6.586;2022-08-19T12:59:15;15.10;;;11.80;;
14316;SDS011;7242;50.858;6.586;2022-08-19T13:02:17;12.53;;;11.23;;
14316;SDS011;7242;50.858;6.586;2022-08-19T13:05:21;14.63;;;11.20;;
14316;SDS011;7242;50.858;6.586;2022-08-19T13:08:25;12.93;;;11.63;;
14316;SDS011;7242;50.858;6.586;2022-08-19T13:11:26;11.90;;;9.53;;
14316;SDS011;7242;50.858;6.586;2022-08-19T13:14:33;10.73;;;9.37;;
14316;SDS011;7242;50.858;6.586;2022-08-19T13:17:36;13.13;;;11.33;;
14316;SDS011;7242;50.858;6.586;2022-08-19T13:20:38;12.50;;;10.67;;
14316;SDS011;7242;50.858;6.586;2022-08-19T13:23:42;13.90;;;10.97;;
14316;SDS011;7242;50.858;6.586;2022-08-19T13:26:43;13.73;;;11.90;;
14316;SDS011;7242;50.858;6.586;2022-08-19T13:29:45;13.10;;;11.30;;
14316;SDS011;7242;50.858;6.586;2022-08-19T13:33:04;10.77;;;8.40;;
14316;SDS011;7242;50.858;6.586;2022-08-19T13:36:14;8.57;;;7.73;;
14316;SDS011;7242;50.858;6.586;2022-08-19T13:39:14;8.43;;;6.97;;
14316;SDS011;7242;50.858;6.586;2022-08-19T13:42:15;9.40;;;6.70;;
14316;SDS011;7242;50.858;6.586;2022-08-19T13:45:19;12.47;;;6.07;;
14316;SDS011;7242;50.858;6.586;2022-08-19T13:48:25;10.53;;;5.93;;
14316;SDS011;7242;50.858;6.586;2022-08-19T13:51:27;8.67;;;5.40;;
14316;SDS011;7242;50.858;6.586;2022-08-19T13:54:28;10.13;;;5.17;;
14316;SDS011;7242;50.858;6.586;2022-08-19T13:57:29;6.73;;;4.23;;
14316;SDS011;7242;50.858;6.586;2022-08-19T14:00:34;5.03;;;3.90;;
14316;SDS011;7242;50.858;6.586;2022-08-19T14:03:37;3.73;;;2.80;;
14316;SDS011;7242;50.858;6.586;2022-08-19T14:06:38;4.10;;;3.00;;
14316;SDS011;7242;50.858;6.586;2022-08-19T14:09:38;3.00;;;2.70;;
14316;SDS011;7242;50.858;6.586;2022-08-19T14:12:40;4.10;;;2.60;;
14316;SDS011;7242;50.858;6.586;2022-08-19T14:15:41;5.17;;;3.10;;
14316;SDS011;7242;50.858;6.586;2022-08-19T14:18:42;2.83;;;2.53;;
14316;SDS011;7242;50.858;6.586;2022-08-19T14:21:44;4.37;;;2.70;;
14316;SDS011;7242;50.858;6.586;2022-08-19T14:24:45;4.87;;;2.50;;
14316;SDS011;7242;50.858;6.586;2022-08-19T14:27:51;6.63;;;2.80;;
14316;SDS011;7242;50.858;6.586;2022-08-19T14:30:59;3.20;;;2.90;;
14316;SDS011;7242;50.858;6.586;2022-08-19T14:33:59;5.93;;;2.90;;
14316;SDS011;7242;50.858;6.586;2022-08-19T14:37:00;4.87;;;2.80;;
14316;SDS011;7242;50.858;6.586;2022-08-19T14:40:01;5.53;;;2.80;;
14316;SDS011;7242;50.858;6.586;2022-08-19T14:43:03;5.17;;;2.90;;
14316;SDS011;7242;50.858;6.586;2022-08-19T14:46:05;6.20;;;2.67;;
14316;SDS011;7242;50.858;6.586;2022-08-19T14:49:06;4.13;;;2.40;;
14316;SDS011;7242;50.858;6.586;2022-08-19T14:52:07;4.80;;;2.80;;
14316;SDS011;7242;50.858;6.586;2022-08-19T14:55:08;4.50;;;2.23;;
14316;SDS011;7242;50.858;6.586;2022-08-19T14:58:09;3.57;;;2.53;;
14316;SDS011;7242;50.858;6.586;2022-08-19T15:01:11;6.37;;;2.40;;
14316;SDS011;7242;50.858;6.586;2022-08-19T15:04:12;6.00;;;2.53;;
14316;SDS011;7242;50.858;6.586;2022-08-19T15:07:13;6.10;;;2.53;;
14316;SDS011;7242;50.858;6.586;2022-08-19T15:10:14;4.63;;;2.50;;
14316;SDS011;7242;50.858;6.586;2022-08-19T15:13:15;4.50;;;2.40;;
14316;SDS011;7242;50.858;6.586;2022-08-19T15:16:17;2.87;;;2.20;;
14316;SDS011;7242;50.858;6.586;2022-08-19T15:19:18;3.77;;;2.30;;
14316;SDS011;7242;50.858;6.586;2022-08-19T15:22:18;6.47;;;2.10;;
14316;SDS011;7242;50.858;6.586;2022-08-19T15:25:19;2.77;;;2.10;;
14316;SDS011;7242;50.858;6.586;2022-08-19T15:28:21;3.83;;;2.20;;
14316;SDS011;7242;50.858;6.586;2022-08-19T15:31:23;3.27;;;2.00;;
14316;SDS011;7242;50.858;6.586;2022-08-19T15:34:24;2.47;;;1.90;;
14316;SDS011;7242;50.858;6.586;2022-08-19T15:37:25;2.60;;;1.90;;
14316;SDS011;7242;50.858;6.586;2022-08-19T15:40:26;3.70;;;1.97;;
14316;SDS011;7242;50.858;6.586;2022-08-19T15:43:27;3.10;;;2.10;;
14316;SDS011;7242;50.858;6.586;2022-08-19T15:46:30;2.10;;;1.43;;
14316;SDS011;7242;50.858;6.586;2022-08-19T15:49:32;4.67;;;2.40;;
14316;SDS011;7242;50.858;6.586;2022-08-19T15:52:33;2.33;;;1.90;;
14316;SDS011;7242;50.858;6.586;2022-08-19T15:55:36;3.70;;;3.37;;
14316;SDS011;7242;50.858;6.586;2022-08-19T15:58:42;2.53;;;2.10;;
14316;SDS011;7242;50.858;6.586;2022-08-19T16:02:02;4.53;;;3.40;;
14316;SDS011;7242;50.858;6.586;2022-08-19T16:05:23;2.57;;;2.37;;
14316;SDS011;7242;50.858;6.586;2022-08-19T16:08:43;4.83;;;2.70;;
14316;SDS011;7242;50.858;6.586;2022-08-19T16:11:44;4.17;;;3.00;;
14316;SDS011;7242;50.858;6.586;2022-08-19T16:14:46;3.27;;;2.50;;
14316;SDS011;7242;50.858;6.586;2022-08-19T16:17:48;3.87;;;2.37;;
14316;SDS011;7242;50.858;6.586;2022-08-19T16:20:48;4.00;;;3.30;;
14316;SDS011;7242;50.858;6.586;2022-08-19T16:23:49;6.33;;;4.50;;
14316;SDS011;7242;50.858;6.586;2022-08-19T16:26:51;4.53;;;2.90;;
14316;SDS011;7242;50.858;6.586;2022-08-19T16:29:52;3.23;;;2.70;;
14316;SDS011;7242;50.858;6.586;2022-08-19T16:32:54;3.80;;;3.40;;
14316;SDS011;7242;50.858;6.586;2022-08-19T16:35:54;6.33;;;4.70;;
14316;SDS011;7242;50.858;6.586;2022-08-19T16:38:55;4.30;;;3.40;;
14316;SDS011;7242;50.858;6.586;2022-08-19T16:41:57;4.23;;;2.57;;
14316;SDS011;7242;50.858;6.586;2022-08-19T16:44:59;7.70;;;3.93;;
14316;SDS011;7242;50.858;6.586;2022-08-19T16:48:00;3.57;;;3.27;;
14316;SDS011;7242;50.858;6.586;2022-08-19T16:51:01;4.77;;;3.20;;
14316;SDS011;7242;50.858;6.586;2022-08-19T16:54:08;4.17;;;3.27;;
14316;SDS011;7242;50.858;6.586;2022-08-19T16:57:09;3.87;;;2.50;;
14316;SDS011;7242;50.858;6.586;2022-08-19T17:00:10;3.30;;;2.30;;
14316;SDS011;7242;50.858;6.586;2022-08-19T17:03:12;4.77;;;2.00;;
14316;SDS011;7242;50.858;6.586;2022-08-19T17:06:14;4.77;;;2.03;;
14316;SDS011;7242;50.858;6.586;2022-08-19T17:09:17;2.67;;;1.87;;
14316;SDS011;7242;50.858;6.586;2022-08-19T17:12:18;6.47;;;1.90;;
14316;SDS011;7242;50.858;6.586;2022-08-19T17:15:19;3.17;;;1.63;;
14316;SDS011;7242;50.858;6.586;2022-08-19T17:18:20;1.67;;;1.50;;
14316;SDS011;7242;50.858;6.586;2022-08-19T17:21:25;2.00;;;1.40;;
14316;SDS011;7242;50.858;6.586;2022-08-19T17:24:28;3.20;;;1.43;;
14316;SDS011;7242;50.858;6.586;2022-08-19T17:27:29;1.50;;;1.40;;
14316;SDS011;7242;50.858;6.586;2022-08-19T17:30:30;1.90;;;1.37;;
14316;SDS011;7242;50.858;6.586;2022-08-19T17:33:31;2.77;;;1.30;;
14316;SDS011;7242;50.858;6.586;2022-08-19T17:36:32;2.53;;;1.40;;
14316;SDS011;7242;50.858;6.586;2022-08-19T17:39:33;1.97;;;1.30;;
14316;SDS011;7242;50.858;6.586;2022-08-19T17:42:41;3.40;;;1.70;;
14316;SDS011;7242;50.858;6.586;2022-08-19T17:45:45;1.47;;;1.37;;
14316;SDS011;7242;50.858;6.586;2022-08-19T17:48:46;1.53;;;1.40;;
14316;SDS011;7242;50.858;6.586;2022-08-19T17:51:49;2.67;;;1.60;;
14316;SDS011;7242;50.858;6.586;2022-08-19T17:54:51;1.70;;;1.57;;
14316;SDS011;7242;50.858;6.586;2022-08-19T17:57:52;1.93;;;1.50;;
14316;SDS011;7242;50.858;6.586;2022-08-19T18:00:53;2.50;;;1.40;;
14316;SDS011;7242;50.858;6.586;2022-08-19T18:03:54;3.43;;;1.80;;
14316;SDS011;7242;50.858;6.586;2022-08-19T18:06:55;1.90;;;1.60;;
14316;SDS011;7242;50.858;6.586;2022-08-19T18:09:56;2.30;;;1.87;;
14316;SDS011;7242;50.858;6.586;2022-08-19T18:12:57;5.30;;;1.80;;
14316;SDS011;7242;50.858;6.586;2022-08-19T18:15:58;2.93;;;1.90;;
14316;SDS011;7242;50.858;6.586;2022-08-19T18:18:59;5.23;;;2.90;;
14316;SDS011;7242;50.858;6.586;2022-08-19T18:22:01;2.70;;;2.50;;
14316;SDS011;7242;50.858;6.586;2022-08-19T18:25:07;4.60;;;2.30;;
14316;SDS011;7242;50.858;6.586;2022-08-19T18:28:10;2.57;;;2.37;;
14316;SDS011;7242;50.858;6.586;2022-08-19T18:31:11;3.37;;;2.53;;
14316;SDS011;7242;50.858;6.586;2022-08-19T18:34:12;3.90;;;2.90;;
14316;SDS011;7242;50.858;6.586;2022-08-19T18:37:14;5.23;;;3.07;;